Time;durP1;ratioP1;P1;durP2;ratioP2;P2;SDS_P1;SDS_P2;PMS_P1;PMS_P2;Temp;Humidity;BMP_temperature;BMP_pressure;BME280_temperature;BME280_humidity;BME280_pressure;Samples;Min_cycle;Max_cycle;Signal;HPM_P1;HPM_P2
2023/10/24 00:01:41;;;;;;;8.27;1.95;;;12.00;99.90;;;;;;4977437;28;20053;-80
2023/10/24 00:04:07;;;;;;;5.47;2.03;;;12.00;99.90;;;;;;4961378;28;20081;-82
2023/10/24 00:06:32;;;;;;;9.82;2.80;;;12.00;99.90;;;;;;4975571;28;20056;-81
2023/10/24 00:08:58;;;;;;;3.75;1.75;;;12.10;99.90;;;;;;4959094;28;20046;-82
2023/10/24 00:11:24;;;;;;;6.10;2.13;;;12.10;99.90;;;;;;4975620;28;20034;-82
2023/10/24 00:13:49;;;;;;;8.63;2.40;;;12.10;99.90;;;;;;4975927;28;20030;-82
2023/10/24 00:16:17;;;;;;;6.38;1.70;;;12.10;99.90;;;;;;4942771;28;20038;-82
2023/10/24 00:18:42;;;;;;;6.68;2.38;;;12.10;99.90;;;;;;4962152;28;20037;-82
2023/10/24 00:21:08;;;;;;;3.00;2.05;;;12.10;99.90;;;;;;4946608;28;20030;-82
2023/10/24 00:23:34;;;;;;;3.85;1.40;;;12.10;99.90;;;;;;4962946;28;20080;-82
2023/10/24 00:25:59;;;;;;;5.22;2.20;;;12.20;99.90;;;;;;4976611;28;20042;-81
2023/10/24 00:28:25;;;;;;;5.53;2.08;;;12.20;99.90;;;;;;4960570;28;20034;-82
2023/10/24 00:30:50;;;;;;;3.95;2.30;;;12.20;99.90;;;;;;4961563;28;20495;-82
2023/10/24 00:33:16;;;;;;;4.35;1.88;;;12.20;99.90;;;;;;4981531;28;20109;-82
2023/10/24 00:35:42;;;;;;;5.93;2.05;;;12.20;99.90;;;;;;4960824;28;20125;-82
2023/10/24 00:38:07;;;;;;;5.28;1.70;;;12.20;99.90;;;;;;4978797;28;20180;-82
2023/10/24 00:40:33;;;;;;;7.82;2.40;;;12.30;99.90;;;;;;4978944;28;20110;-82
2023/10/24 00:43:04;;;;;;;1.40;1.27;;;12.30;99.90;;;;;;4976694;28;20505;-82
2023/10/24 00:45:30;;;;;;;6.10;2.00;;;12.30;99.90;;;;;;4975377;28;20464;-82
2023/10/24 00:47:55;;;;;;;5.45;1.90;;;12.40;99.90;;;;;;4960926;28;20142;-82
2023/10/24 00:50:21;;;;;;;3.15;1.90;;;12.40;99.90;;;;;;4955102;28;20073;-82
2023/10/24 00:52:46;;;;;;;4.07;2.05;;;12.40;99.90;;;;;;4963459;28;20026;-81
2023/10/24 00:55:12;;;;;;;2.95;1.70;;;12.40;99.90;;;;;;4963305;28;20027;-81
2023/10/24 00:57:38;;;;;;;8.85;2.65;;;12.40;99.90;;;;;;4978827;28;20026;-80
2023/10/24 01:00:04;;;;;;;7.95;2.55;;;12.40;99.90;;;;;;4960322;28;20438;-81
2023/10/24 01:02:29;;;;;;;3.90;1.90;;;12.50;99.90;;;;;;4973012;28;20406;-80
2023/10/24 01:04:55;;;;;;;3.03;2.13;;;12.50;99.90;;;;;;4974042;28;20030;-81
2023/10/24 01:07:21;;;;;;;3.80;2.03;;;12.50;99.90;;;;;;4956705;28;20568;-81
2023/10/24 01:09:46;;;;;;;3.22;1.65;;;12.50;99.90;;;;;;4974871;28;20038;-80
2023/10/24 01:12:12;;;;;;;2.58;1.67;;;12.50;99.90;;;;;;4959417;28;20031;-80
2023/10/24 01:14:39;;;;;;;3.60;2.15;;;12.60;99.90;;;;;;4974669;28;20026;-80
2023/10/24 01:17:11;;;;;;;3.08;1.90;;;12.60;99.90;;;;;;4976727;28;20497;-81
2023/10/24 01:19:37;;;;;;;4.63;1.98;;;12.50;99.90;;;;;;4960184;28;20034;-81
2023/10/24 01:22:03;;;;;;;5.55;1.98;;;12.50;99.90;;;;;;4973889;28;20034;-81
2023/10/24 01:24:28;;;;;;;5.75;1.70;;;12.50;99.90;;;;;;4973544;28;20038;-81
2023/10/24 01:26:54;;;;;;;3.97;1.58;;;12.50;99.90;;;;;;4979191;28;20153;-81
2023/10/24 01:29:20;;;;;;;14.60;4.85;;;12.50;99.90;;;;;;4961686;28;20034;-81
2023/10/24 01:31:45;;;;;;;4.07;1.30;;;12.60;99.90;;;;;;4976946;28;20109;-80
2023/10/24 01:34:12;;;;;;;4.32;2.15;;;12.50;99.90;;;;;;4975507;28;20529;-81
2023/10/24 01:36:37;;;;;;;1.25;0.80;;;12.50;99.90;;;;;;4976152;28;20896;-80
2023/10/24 01:39:03;;;;;;;4.18;1.88;;;12.60;99.90;;;;;;4959693;28;20094;-81
2023/10/24 01:41:28;;;;;;;5.50;2.22;;;12.60;99.90;;;;;;4975800;28;20058;-81
2023/10/24 01:43:55;;;;;;;9.40;1.65;;;12.70;99.90;;;;;;4973957;28;20030;-80
2023/10/24 01:46:21;;;;;;;4.47;1.58;;;12.70;99.90;;;;;;4949215;28;20420;-80
2023/10/24 01:48:46;;;;;;;3.40;1.40;;;12.70;99.90;;;;;;4977366;28;20041;-80
2023/10/24 01:51:12;;;;;;;3.63;1.67;;;12.70;99.90;;;;;;4976291;28;20021;-81
2023/10/24 01:53:37;;;;;;;4.35;1.48;;;12.70;99.90;;;;;;4972517;28;20382;-80
2023/10/24 01:56:03;;;;;;;5.53;1.67;;;12.70;99.90;;;;;;4957940;28;20062;-78
2023/10/24 01:58:29;;;;;;;3.92;1.70;;;12.70;99.90;;;;;;4973573;28;20088;-78
2023/10/24 02:00:54;;;;;;;5.38;1.40;;;12.70;99.90;;;;;;4969503;28;20049;-78
2023/10/24 02:03:20;;;;;;;2.42;1.48;;;12.70;99.90;;;;;;4956136;28;20057;-78
2023/10/24 02:05:45;;;;;;;5.50;1.50;;;12.80;99.90;;;;;;4959402;28;20479;-78
2023/10/24 02:08:11;;;;;;;4.30;1.33;;;12.70;99.90;;;;;;4976146;28;20041;-78
2023/10/24 02:10:36;;;;;;;4.80;1.30;;;12.70;99.90;;;;;;4977531;28;20030;-78
2023/10/24 02:13:02;;;;;;;5.07;1.25;;;12.70;99.90;;;;;;4974377;28;20122;-78
2023/10/24 02:15:27;;;;;;;7.20;1.83;;;12.80;99.90;;;;;;4960071;28;20492;-78
2023/10/24 02:17:53;;;;;;;3.05;1.92;;;12.80;99.90;;;;;;4974109;28;20698;-78
2023/10/24 02:20:19;;;;;;;2.25;1.08;;;12.80;99.90;;;;;;4970774;28;20395;-77
2023/10/24 02:22:48;;;;;;;8.20;1.25;;;12.80;99.90;;;;;;4973042;28;20402;-78
2023/10/24 02:25:14;;;;;;;4.63;1.50;;;12.80;99.90;;;;;;4958207;28;20376;-78
2023/10/24 02:27:40;;;;;;;6.03;2.80;;;12.70;99.90;;;;;;4958638;28;20033;-78
2023/10/24 02:30:06;;;;;;;1.80;1.20;;;12.80;99.90;;;;;;4975436;28;20084;-78
2023/10/24 02:32:32;;;;;;;2.85;1.30;;;12.80;99.90;;;;;;4960880;28;20121;-77
2023/10/24 02:34:57;;;;;;;3.38;1.55;;;12.80;99.90;;;;;;4975046;28;20114;-78
2023/10/24 02:37:23;;;;;;;3.10;1.60;;;12.80;99.90;;;;;;4972898;28;20029;-78
2023/10/24 02:39:49;;;;;;;2.05;1.20;;;12.80;99.90;;;;;;4962072;28;20038;-77
2023/10/24 02:42:14;;;;;;;1.60;1.13;;;12.80;99.90;;;;;;4970634;28;20566;-78
2023/10/24 02:44:40;;;;;;;5.20;1.30;;;12.80;99.90;;;;;;4978404;28;20057;-78
2023/10/24 02:47:05;;;;;;;1.63;1.15;;;12.80;99.90;;;;;;4973598;28;20394;-77
2023/10/24 02:49:32;;;;;;;3.30;1.50;;;12.90;99.90;;;;;;4957633;28;20030;-78
2023/10/24 02:51:58;;;;;;;4.35;1.58;;;12.90;99.90;;;;;;4956548;28;20046;-78
2023/10/24 02:54:23;;;;;;;1.02;0.93;;;12.80;99.90;;;;;;4956636;28;20042;-77
2023/10/24 02:56:49;;;;;;;1.45;1.00;;;12.90;99.90;;;;;;4972178;28;20046;-77
2023/10/24 02:59:15;;;;;;;1.30;1.02;;;12.90;99.90;;;;;;4978504;28;20507;-77
2023/10/24 03:01:41;;;;;;;1.20;1.00;;;12.90;99.90;;;;;;4971126;28;20049;-76
2023/10/24 03:04:06;;;;;;;2.60;1.90;;;12.90;99.90;;;;;;4959674;28;20121;-77
2023/10/24 03:06:32;;;;;;;2.08;1.20;;;12.80;99.90;;;;;;4972843;28;20113;-76
2023/10/24 03:08:58;;;;;;;5.63;1.73;;;12.90;99.90;;;;;;4974712;28;20051;-77
2023/10/24 03:11:23;;;;;;;2.15;1.70;;;13.00;99.90;;;;;;4970767;28;20026;-77
2023/10/24 03:13:49;;;;;;;5.53;2.33;;;12.90;99.90;;;;;;4969225;28;20137;-78
2023/10/24 03:16:15;;;;;;;6.82;2.20;;;12.90;99.90;;;;;;4961080;28;20042;-77
2023/10/24 03:18:41;;;;;;;3.05;1.27;;;13.00;99.90;;;;;;4978281;28;20044;-77
2023/10/24 03:21:07;;;;;;;3.17;1.65;;;12.90;99.90;;;;;;4973320;28;20072;-77
2023/10/24 03:23:32;;;;;;;2.83;1.55;;;13.00;99.90;;;;;;4960023;28;20039;-77
2023/10/24 03:25:58;;;;;;;2.38;1.92;;;12.90;99.90;;;;;;4976579;28;20074;-77
2023/10/24 03:28:24;;;;;;;3.65;2.08;;;12.90;99.90;;;;;;4975071;28;20030;-78
2023/10/24 03:30:59;;;;;;;7.30;2.20;;;12.90;99.90;;;;;;4975408;28;20034;-77
2023/10/24 03:33:24;;;;;;;4.18;2.72;;;12.90;99.90;;;;;;4972938;28;20137;-77
2023/10/24 03:35:50;;;;;;;3.63;1.90;;;12.90;99.90;;;;;;4975650;28;20715;-78
2023/10/24 03:38:16;;;;;;;2.83;2.20;;;12.90;99.90;;;;;;4972220;28;20113;-77
2023/10/24 03:40:41;;;;;;;3.10;1.90;;;12.90;99.90;;;;;;4961282;28;20058;-77
2023/10/24 03:43:07;;;;;;;9.55;2.80;;;12.80;99.90;;;;;;4975797;28;20041;-78
2023/10/24 03:45:34;;;;;;;3.53;1.73;;;12.80;99.90;;;;;;4962032;28;20026;-77
2023/10/24 03:47:59;;;;;;;3.00;2.47;;;12.80;99.90;;;;;;4960732;28;20026;-77
2023/10/24 03:50:25;;;;;;;4.60;2.13;;;12.80;99.90;;;;;;4956435;28;20042;-76
2023/10/24 03:52:51;;;;;;;4.45;1.98;;;12.80;99.90;;;;;;4972282;28;20084;-78
2023/10/24 03:55:16;;;;;;;7.05;2.17;;;12.80;99.90;;;;;;4961540;28;20029;-78
2023/10/24 03:57:42;;;;;;;3.45;1.95;;;12.80;99.90;;;;;;4973989;28;20637;-78
2023/10/24 04:00:08;;;;;;;4.60;1.42;;;12.80;99.90;;;;;;4976699;28;20040;-78
2023/10/24 04:02:34;;;;;;;8.60;1.95;;;12.80;99.90;;;;;;4960007;28;20103;-78
2023/10/24 04:05:00;;;;;;;2.72;2.10;;;12.80;99.90;;;;;;4974802;28;20399;-78
2023/10/24 04:07:26;;;;;;;4.03;2.08;;;12.70;99.90;;;;;;4976792;28;20018;-78
2023/10/24 04:09:52;;;;;;;5.47;1.95;;;12.80;99.90;;;;;;4945842;28;20030;-79
2023/10/24 04:12:17;;;;;;;2.60;1.80;;;12.80;99.90;;;;;;4981630;28;20102;-77
2023/10/24 04:14:43;;;;;;;3.78;1.70;;;12.90;99.90;;;;;;4978539;28;21176;-78
2023/10/24 04:17:09;;;;;;;3.30;1.92;;;12.70;99.90;;;;;;4945114;28;20054;-78
2023/10/24 04:19:34;;;;;;;3.60;1.35;;;12.70;99.90;;;;;;4957235;28;20058;-78
2023/10/24 04:22:02;;;;;;;2.50;1.10;;;12.70;99.90;;;;;;4981372;28;20106;-78
2023/10/24 04:24:28;;;;;;;1.27;1.10;;;12.70;99.90;;;;;;4964245;28;20092;-79
2023/10/24 04:26:54;;;;;;;3.42;1.42;;;12.70;99.90;;;;;;4978728;28;20073;-78
2023/10/24 04:29:19;;;;;;;2.53;1.40;;;12.70;99.90;;;;;;4956373;28;20037;-78
2023/10/24 04:31:45;;;;;;;2.38;0.60;;;12.80;99.90;;;;;;4976917;28;20034;-77
2023/10/24 04:34:10;;;;;;;1.20;0.98;;;12.70;99.90;;;;;;4979878;28;20081;-78
2023/10/24 04:36:36;;;;;;;1.65;0.93;;;12.70;99.90;;;;;;4965655;28;20068;-78
2023/10/24 04:39:02;;;;;;;1.73;1.17;;;12.70;99.90;;;;;;4978781;28;20060;-78
2023/10/24 04:41:27;;;;;;;3.28;2.65;;;12.70;99.90;;;;;;4974456;28;20034;-78
2023/10/24 04:43:53;;;;;;;3.47;1.33;;;12.60;99.90;;;;;;4973012;28;20030;-78
2023/10/24 04:46:18;;;;;;;2.50;1.35;;;12.60;99.90;;;;;;4961221;28;20034;-78
2023/10/24 04:48:44;;;;;;;3.55;1.33;;;12.60;99.90;;;;;;4989291;28;20124;-77
2023/10/24 04:51:10;;;;;;;2.75;1.15;;;12.60;99.90;;;;;;4976252;28;20141;-79
2023/10/24 04:53:36;;;;;;;4.30;1.50;;;12.60;99.90;;;;;;4962031;28;20038;-78
2023/10/24 04:56:03;;;;;;;3.22;1.02;;;12.60;99.90;;;;;;4973287;28;20033;-80
2023/10/24 04:58:29;;;;;;;3.58;1.23;;;12.60;99.90;;;;;;4973304;28;20514;-78
2023/10/24 05:00:54;;;;;;;2.00;1.10;;;12.60;99.90;;;;;;4956549;28;20033;-77
2023/10/24 05:03:20;;;;;;;2.80;1.40;;;12.60;99.90;;;;;;4964699;28;20050;-79
2023/10/24 05:05:45;;;;;;;3.45;0.95;;;12.60;99.90;;;;;;4960127;28;20026;-77
2023/10/24 05:08:12;;;;;;;1.65;1.00;;;12.70;99.90;;;;;;4975983;28;20030;-77
2023/10/24 05:10:37;;;;;;;2.60;1.40;;;12.60;99.90;;;;;;4961163;28;20056;-76
2023/10/24 05:13:03;;;;;;;5.68;1.20;;;12.60;99.90;;;;;;4974313;28;20522;-76
2023/10/24 05:15:28;;;;;;;4.35;1.25;;;12.60;99.90;;;;;;4974955;28;20035;-76
2023/10/24 05:17:54;;;;;;;2.22;0.90;;;12.60;99.90;;;;;;4971753;28;20041;-77
2023/10/24 05:20:20;;;;;;;5.65;1.05;;;12.60;99.90;;;;;;4975465;28;20061;-76
2023/10/24 05:22:45;;;;;;;4.03;1.00;;;12.60;99.90;;;;;;4956972;28;20030;-77
2023/10/24 05:25:11;;;;;;;3.55;0.82;;;12.60;99.90;;;;;;4960309;28;20030;-76
2023/10/24 05:27:36;;;;;;;1.48;0.75;;;12.60;99.90;;;;;;4954820;28;20031;-76
2023/10/24 05:30:02;;;;;;;1.13;0.57;;;12.50;99.90;;;;;;4963516;28;20031;-76
2023/10/24 05:32:28;;;;;;;1.40;0.98;;;12.60;99.90;;;;;;4959454;28;20028;-76
2023/10/24 05:34:53;;;;;;;1.88;0.82;;;12.50;99.90;;;;;;4986894;28;20039;-76
2023/10/24 05:37:19;;;;;;;1.92;1.00;;;12.60;99.90;;;;;;4989769;28;20494;-77
2023/10/24 05:39:44;;;;;;;2.20;0.93;;;12.40;99.90;;;;;;4975531;28;20578;-77
2023/10/24 05:42:10;;;;;;;1.15;0.70;;;12.50;99.90;;;;;;4959479;28;20551;-76
2023/10/24 05:44:35;;;;;;;2.42;0.98;;;12.40;99.90;;;;;;4965200;28;20080;-77
2023/10/24 05:47:01;;;;;;;1.27;1.02;;;12.40;99.90;;;;;;4971965;28;20034;-78
2023/10/24 05:49:27;;;;;;;2.25;0.77;;;12.50;99.90;;;;;;4956354;28;20030;-78
2023/10/24 05:51:52;;;;;;;2.38;0.90;;;12.40;99.90;;;;;;4971745;28;20253;-77
2023/10/24 05:54:18;;;;;;;1.98;1.10;;;12.40;99.90;;;;;;4974638;28;20491;-77
2023/10/24 05:56:43;;;;;;;2.55;0.90;;;12.40;99.90;;;;;;4975327;28;20030;-77
2023/10/24 05:59:09;;;;;;;0.93;0.57;;;12.40;99.90;;;;;;4971482;28;20030;-77
2023/10/24 06:01:35;;;;;;;2.85;1.10;;;12.50;99.90;;;;;;4969208;28;20026;-77
2023/10/24 06:04:00;;;;;;;0.80;0.63;;;12.50;99.90;;;;;;4957179;28;20415;-77
2023/10/24 06:06:26;;;;;;;0.70;0.70;;;12.50;99.90;;;;;;4960982;28;20046;-77
2023/10/24 06:08:51;;;;;;;3.05;1.02;;;12.50;99.90;;;;;;4955922;28;20038;-77
2023/10/24 06:11:17;;;;;;;1.40;0.90;;;12.40;99.90;;;;;;4972833;28;20502;-77
2023/10/24 06:13:43;;;;;;;2.03;0.90;;;12.40;99.90;;;;;;4975051;28;20034;-78
2023/10/24 06:16:12;;;;;;;1.77;0.90;;;12.40;99.90;;;;;;4971300;28;20049;-77
2023/10/24 06:18:38;;;;;;;0.68;0.57;;;12.40;99.90;;;;;;4954746;28;20047;-77
2023/10/24 06:21:05;;;;;;;3.50;1.08;;;12.40;99.90;;;;;;4968133;28;20069;-78
2023/10/24 06:23:31;;;;;;;2.60;0.85;;;12.40;99.90;;;;;;4972530;28;20038;-77
2023/10/24 06:25:57;;;;;;;2.00;0.75;;;12.40;99.90;;;;;;4969490;28;20465;-77
2023/10/24 06:28:23;;;;;;;1.70;0.98;;;12.30;99.90;;;;;;4970623;28;20520;-78
2023/10/24 06:30:50;;;;;;;0.77;0.70;;;12.30;99.90;;;;;;4956954;28;20035;-78
2023/10/24 06:33:15;;;;;;;2.53;0.93;;;12.40;99.90;;;;;;4955403;28;20034;-78
2023/10/24 06:35:41;;;;;;;1.45;0.80;;;12.30;99.90;;;;;;4978362;28;20037;-77
2023/10/24 06:38:06;;;;;;;3.25;0.90;;;12.40;99.90;;;;;;4954805;28;20088;-78
2023/10/24 06:40:32;;;;;;;4.00;0.98;;;12.40;99.90;;;;;;4975506;28;20058;-78
2023/10/24 06:42:58;;;;;;;1.70;0.95;;;12.40;99.90;;;;;;4975344;28;20126;-78
2023/10/24 06:45:24;;;;;;;1.88;0.77;;;12.40;99.90;;;;;;4972217;28;20030;-78
2023/10/24 06:47:50;;;;;;;0.65;0.65;;;12.40;99.90;;;;;;4955308;28;20042;-78
2023/10/24 06:50:15;;;;;;;2.20;0.73;;;12.30;99.90;;;;;;4973644;28;20041;-77
2023/10/24 06:52:42;;;;;;;1.27;1.10;;;12.30;99.90;;;;;;4959036;28;20113;-77
2023/10/24 06:55:10;;;;;;;4.10;0.73;;;12.30;99.90;;;;;;4993873;28;20054;-77
2023/10/24 06:57:36;;;;;;;1.13;0.80;;;12.40;99.90;;;;;;4959250;28;20503;-77
2023/10/24 07:00:01;;;;;;;1.60;1.00;;;12.40;99.90;;;;;;4962668;28;20033;-77
2023/10/24 07:02:27;;;;;;;2.70;0.90;;;12.40;99.90;;;;;;4977934;28;20081;-77
2023/10/24 07:04:55;;;;;;;2.00;0.98;;;12.40;99.90;;;;;;4974031;28;20046;-77
2023/10/24 07:07:22;;;;;;;2.13;1.17;;;12.40;99.90;;;;;;4974215;28;20038;-77
2023/10/24 07:09:47;;;;;;;1.98;0.98;;;12.40;99.90;;;;;;4990895;28;20034;-78
2023/10/24 07:12:13;;;;;;;1.77;0.73;;;12.40;99.90;;;;;;4977292;28;20073;-78
2023/10/24 07:14:39;;;;;;;1.15;0.85;;;12.40;99.90;;;;;;4975712;28;20041;-77
2023/10/24 07:17:05;;;;;;;1.35;0.60;;;12.40;99.90;;;;;;4967210;28;20482;-77
2023/10/24 07:19:31;;;;;;;1.98;0.82;;;12.40;99.90;;;;;;4981182;28;20087;-78
2023/10/24 07:21:56;;;;;;;1.83;1.70;;;12.40;99.90;;;;;;4961514;28;20391;-77
2023/10/24 07:24:22;;;;;;;3.03;1.15;;;12.50;99.90;;;;;;4959815;28;20479;-77
2023/10/24 07:26:48;;;;;;;2.15;0.70;;;12.50;99.90;;;;;;4957485;28;20100;-78
2023/10/24 07:29:13;;;;;;;1.02;0.90;;;12.50;99.90;;;;;;4976698;28;20030;-78
2023/10/24 07:31:41;;;;;;;3.45;0.93;;;12.50;99.90;;;;;;4974150;28;20523;-77
2023/10/24 07:34:08;;;;;;;2.17;0.98;;;12.50;99.90;;;;;;4961952;28;20038;-77
2023/10/24 07:36:35;;;;;;;0.90;0.50;;;12.50;99.90;;;;;;4958067;28;20706;-77
2023/10/24 07:39:00;;;;;;;1.05;0.80;;;12.50;99.90;;;;;;4960154;28;20038;-77
2023/10/24 07:41:27;;;;;;;3.13;1.00;;;12.60;99.90;;;;;;4970821;28;20841;-77
2023/10/24 07:43:52;;;;;;;0.77;0.43;;;12.50;99.90;;;;;;4972855;28;20502;-78
2023/10/24 07:46:18;;;;;;;1.42;0.68;;;12.50;99.90;;;;;;4982274;28;20040;-78
2023/10/24 07:48:44;;;;;;;10.18;1.13;;;12.60;99.90;;;;;;4972682;28;20057;-77
2023/10/24 07:51:11;;;;;;;1.60;0.80;;;12.60;99.90;;;;;;4973593;28;20600;-78
2023/10/24 07:53:36;;;;;;;1.70;0.90;;;12.60;99.90;;;;;;4963697;28;20507;-78
2023/10/24 07:56:03;;;;;;;1.70;0.68;;;12.60;99.90;;;;;;4957981;28;20039;-77
2023/10/24 07:58:29;;;;;;;3.53;0.82;;;12.70;99.90;;;;;;4975412;28;20035;-77
2023/10/24 08:00:55;;;;;;;2.95;0.95;;;12.70;99.90;;;;;;4959675;28;20408;-77
2023/10/24 08:03:20;;;;;;;1.88;1.00;;;12.70;99.90;;;;;;4973912;28;20103;-78
2023/10/24 08:05:46;;;;;;;1.60;0.90;;;12.70;99.90;;;;;;4961156;28;20104;-77
2023/10/24 08:08:12;;;;;;;3.92;0.73;;;12.70;99.90;;;;;;4976655;28;20018;-77
2023/10/24 08:10:38;;;;;;;3.80;1.17;;;12.70;99.90;;;;;;4956408;28;20034;-77
2023/10/24 08:13:03;;;;;;;1.15;0.70;;;12.70;99.90;;;;;;4961177;28;20120;-77
2023/10/24 08:15:32;;;;;;;1.33;1.00;;;12.70;99.90;;;;;;4972072;28;20109;-77
2023/10/24 08:18:00;;;;;;;6.97;1.00;;;12.70;99.90;;;;;;4973472;28;20682;-77
2023/10/24 08:20:26;;;;;;;1.98;0.80;;;12.80;99.90;;;;;;4948959;28;20047;-77
2023/10/24 08:22:52;;;;;;;1.45;0.70;;;12.80;99.90;;;;;;4950927;28;20606;-78
2023/10/24 08:25:17;;;;;;;2.33;1.00;;;12.80;99.90;;;;;;4968183;28;20026;-77
2023/10/24 08:27:44;;;;;;;2.03;0.90;;;12.80;99.90;;;;;;4976152;28;20033;-78
2023/10/24 08:30:10;;;;;;;1.30;0.80;;;12.80;99.90;;;;;;4953903;28;20031;-78
2023/10/24 08:32:35;;;;;;;1.30;0.70;;;12.80;99.90;;;;;;4978766;28;20029;-77
2023/10/24 08:35:01;;;;;;;2.13;0.93;;;12.80;99.90;;;;;;4958266;28;20032;-78
2023/10/24 08:37:27;;;;;;;2.10;0.80;;;12.80;99.90;;;;;;4977135;28;20026;-77
2023/10/24 08:39:54;;;;;;;2.72;0.73;;;12.90;99.90;;;;;;4972537;28;20034;-77
2023/10/24 08:42:19;;;;;;;1.48;0.85;;;12.90;99.90;;;;;;4973689;28;20084;-78
2023/10/24 08:44:45;;;;;;;0.75;0.75;;;12.90;99.90;;;;;;4975284;28;20038;-77
2023/10/24 08:47:11;;;;;;;6.35;0.80;;;13.00;99.90;;;;;;4957156;28;20034;-77
2023/10/24 08:49:36;;;;;;;1.85;0.80;;;12.90;99.90;;;;;;4961422;28;20031;-77
2023/10/24 08:52:03;;;;;;;2.83;1.02;;;12.90;99.90;;;;;;4973093;28;20042;-77
2023/10/24 08:54:29;;;;;;;0.95;0.70;;;13.00;99.90;;;;;;4971230;28;20034;-78
2023/10/24 08:56:57;;;;;;;1.20;0.70;;;13.00;99.90;;;;;;4973060;28;20033;-78
2023/10/24 08:59:24;;;;;;;1.67;0.90;;;13.10;99.90;;;;;;4959235;28;20157;-77
2023/10/24 09:01:50;;;;;;;1.90;0.80;;;13.10;99.90;;;;;;4959387;28;20057;-77
2023/10/24 09:04:16;;;;;;;1.70;0.70;;;13.10;99.90;;;;;;4972812;28;20934;-77
2023/10/24 09:06:41;;;;;;;1.17;0.82;;;13.10;99.90;;;;;;4959548;28;20399;-77
2023/10/24 09:09:07;;;;;;;1.80;0.80;;;13.10;99.90;;;;;;4974654;28;20038;-77
2023/10/24 09:11:54;;;;;;;4.85;1.00;;;13.20;99.90;;;;;;4946425;28;20651;-78
2023/10/24 09:14:20;;;;;;;1.60;0.45;;;13.30;99.90;;;;;;4964642;28;20486;-77
2023/10/24 09:16:53;;;;;;;1.85;0.43;;;13.30;99.90;;;;;;4972996;28;20056;-77
2023/10/24 09:19:18;;;;;;;1.90;1.02;;;13.30;99.90;;;;;;4971714;28;20045;-77
2023/10/24 09:21:44;;;;;;;1.13;0.70;;;13.40;99.90;;;;;;4970019;28;20038;-78
2023/10/24 09:24:12;;;;;;;1.38;0.52;;;13.50;99.90;;;;;;4956174;28;20034;-77
2023/10/24 09:26:40;;;;;;;1.30;0.90;;;13.50;99.90;;;;;;4957982;28;20030;-77
2023/10/24 09:29:08;;;;;;;0.90;0.70;;;13.60;99.90;;;;;;4960061;28;20426;-77
2023/10/24 09:31:36;;;;;;;3.28;0.93;;;13.70;99.90;;;;;;4971510;28;20121;-78
2023/10/24 09:34:01;;;;;;;1.02;0.88;;;13.70;99.90;;;;;;4961943;28;20045;-77
2023/10/24 09:36:27;;;;;;;2.72;0.70;;;13.80;99.90;;;;;;4977027;28;20399;-77
2023/10/24 09:38:54;;;;;;;2.08;0.90;;;13.80;99.90;;;;;;4955816;28;20038;-77
2023/10/24 09:41:20;;;;;;;2.03;0.70;;;13.90;99.90;;;;;;4957011;28;20038;-76
2023/10/24 09:43:47;;;;;;;1.33;0.80;;;13.90;99.90;;;;;;4969719;28;20134;-77
2023/10/24 09:46:14;;;;;;;2.10;0.70;;;13.90;99.90;;;;;;4973172;28;20034;-77
2023/10/24 09:48:40;;;;;;;1.17;0.90;;;13.90;99.90;;;;;;4936095;28;20038;-77
2023/10/24 09:51:06;;;;;;;1.05;0.90;;;13.90;99.90;;;;;;4955924;28;20507;-77
2023/10/24 09:53:31;;;;;;;2.13;1.08;;;14.10;99.90;;;;;;4970706;28;20110;-77
2023/10/24 09:55:58;;;;;;;2.45;0.93;;;14.10;99.90;;;;;;4972442;28;20191;-76
2023/10/24 09:58:24;;;;;;;3.53;1.08;;;14.20;99.90;;;;;;4971219;28;20045;-77
2023/10/24 10:00:49;;;;;;;2.75;0.80;;;14.20;99.90;;;;;;4955365;28;20042;-77
2023/10/24 10:03:15;;;;;;;3.78;1.08;;;14.30;99.90;;;;;;4954342;28;20037;-78
2023/10/24 10:05:41;;;;;;;3.83;1.25;;;14.30;99.90;;;;;;4959131;28;20139;-78
2023/10/24 10:08:07;;;;;;;2.35;1.25;;;14.40;99.90;;;;;;4956111;28;20523;-77
2023/10/24 10:10:34;;;;;;;1.13;1.02;;;14.50;99.90;;;;;;4975089;28;20530;-77
2023/10/24 10:13:03;;;;;;;3.13;1.20;;;14.60;99.90;;;;;;4967195;28;20429;-78
2023/10/24 10:16:09;;;;;;;1.00;0.90;;;14.70;99.90;;;;;;4954353;28;20335;-77
2023/10/24 10:18:56;;;;;;;2.15;1.27;;;14.70;99.90;;;;;;4907584;29;20422;-77
2023/10/24 10:21:42;;;;;;;3.15;1.02;;;14.70;99.90;;;;;;4911463;29;20032;-77
2023/10/24 10:24:23;;;;;;;1.40;1.20;;;14.90;99.90;;;;;;4962823;28;20080;-77
2023/10/24 10:27:03;;;;;;;1.70;0.93;;;15.00;99.90;;;;;;4978084;28;20113;-77
2023/10/24 10:29:40;;;;;;;2.70;1.00;;;15.10;99.90;;;;;;4963331;28;20681;-77
2023/10/24 10:32:12;;;;;;;3.55;1.38;;;15.30;99.90;;;;;;4980465;28;20034;-78
2023/10/24 10:34:44;;;;;;;2.08;1.15;;;15.40;99.90;;;;;;4994571;28;20064;-77
2023/10/24 10:37:20;;;;;;;3.67;1.27;;;15.50;99.90;;;;;;4961498;28;20027;-77
2023/10/24 10:40:15;;;;;;;2.10;1.20;;;15.50;99.90;;;;;;4954433;28;20038;-77
2023/10/24 10:42:48;;;;;;;3.47;1.10;;;15.70;99.90;;;;;;4965915;28;20513;-78
2023/10/24 10:45:27;;;;;;;1.67;1.27;;;15.70;99.90;;;;;;4963634;28;20037;-77
2023/10/24 10:48:08;;;;;;;2.50;0.93;;;15.80;99.90;;;;;;4976172;28;20038;-77
2023/10/24 10:50:35;;;;;;;1.08;0.93;;;15.70;99.90;;;;;;4881834;28;20512;-78
2023/10/24 10:53:35;;;;;;;2.05;1.23;;;15.80;99.90;;;;;;4951334;28;20646;-78
2023/10/24 10:56:12;;;;;;;1.85;1.40;;;16.00;99.90;;;;;;4959989;28;20089;-77
2023/10/24 10:58:44;;;;;;;2.05;1.20;;;15.90;99.90;;;;;;4995195;28;20690;-77
2023/10/24 11:01:34;;;;;;;1.35;1.20;;;15.90;99.90;;;;;;4979645;28;20060;-77
2023/10/24 11:04:00;;;;;;;2.72;1.40;;;16.00;99.90;;;;;;4993452;28;20041;-77
2023/10/24 11:06:27;;;;;;;2.85;1.10;;;16.10;99.90;;;;;;4974876;28;20557;-77
2023/10/24 11:09:09;;;;;;;1.20;1.08;;;16.10;99.90;;;;;;4962675;28;20121;-77
2023/10/24 11:11:37;;;;;;;4.50;1.33;;;16.20;99.90;;;;;;4961706;28;20064;-77
2023/10/24 11:14:19;;;;;;;0.93;0.82;;;16.30;99.90;;;;;;4959745;28;20049;-77
2023/10/24 11:16:46;;;;;;;2.60;1.60;;;16.20;99.90;;;;;;4974466;28;20085;-78
2023/10/24 11:19:19;;;;;;;3.05;1.08;;;16.20;99.90;;;;;;4976546;28;20038;-77
2023/10/24 11:21:48;;;;;;;4.88;1.20;;;16.30;99.90;;;;;;4965994;28;20482;-78
2023/10/24 11:24:20;;;;;;;2.03;1.23;;;16.30;99.90;;;;;;4959885;28;20432;-78
2023/10/24 11:27:04;;;;;;;1.80;1.00;;;16.20;99.90;;;;;;4963591;28;20564;-77
2023/10/24 11:29:30;;;;;;;1.10;1.00;;;16.20;99.90;;;;;;4978224;28;20109;-77
2023/10/24 11:31:58;;;;;;;4.82;1.33;;;16.50;99.90;;;;;;4961986;28;20126;-77
2023/10/24 11:34:25;;;;;;;3.33;1.17;;;16.40;99.90;;;;;;4962439;28;20117;-77
2023/10/24 11:36:52;;;;;;;1.33;1.08;;;16.30;99.90;;;;;;4994548;28;20033;-77
2023/10/24 11:39:17;;;;;;;1.38;1.20;;;16.40;99.90;;;;;;4972783;28;20058;-77
2023/10/24 11:41:43;;;;;;;2.55;1.17;;;16.20;99.90;;;;;;4961855;28;20081;-77
2023/10/24 11:44:11;;;;;;;4.50;1.23;;;16.20;99.90;;;;;;4939487;28;20045;-78
2023/10/24 11:46:41;;;;;;;2.75;1.00;;;16.40;99.90;;;;;;4955792;28;20038;-77
2023/10/24 11:49:06;;;;;;;2.00;1.02;;;16.50;99.90;;;;;;4948085;28;20041;-78
2023/10/24 11:51:32;;;;;;;2.17;1.10;;;16.40;99.90;;;;;;4974375;28;20061;-78
2023/10/24 11:54:03;;;;;;;1.92;1.05;;;16.50;99.90;;;;;;4974524;28;20110;-78
2023/10/24 11:56:30;;;;;;;3.10;1.20;;;16.30;99.90;;;;;;4972038;28;20065;-78
2023/10/24 11:58:56;;;;;;;2.15;1.23;;;16.20;99.90;;;;;;4975573;28;20541;-78
2023/10/24 12:01:24;;;;;;;2.78;1.30;;;16.40;99.90;;;;;;4973617;28;20398;-78
2023/10/24 12:03:53;;;;;;;1.15;0.80;;;16.30;99.90;;;;;;4972362;28;20120;-78
2023/10/24 12:06:19;;;;;;;2.17;1.50;;;16.30;99.90;;;;;;4974312;28;20038;-78
2023/10/24 12:08:45;;;;;;;3.30;1.63;;;16.30;99.90;;;;;;4975183;28;20125;-77
2023/10/24 12:11:10;;;;;;;2.55;1.30;;;16.30;99.90;;;;;;4966325;28;20500;-77
2023/10/24 12:13:36;;;;;;;2.78;1.30;;;16.40;99.90;;;;;;4975653;28;20161;-77
2023/10/24 12:16:06;;;;;;;5.80;1.80;;;16.30;99.90;;;;;;4945915;28;20180;-77
2023/10/24 12:18:31;;;;;;;1.20;1.10;;;16.40;99.90;;;;;;4961823;28;20453;-78
2023/10/24 12:21:01;;;;;;;4.82;1.92;;;16.10;99.90;;;;;;4956007;28;20034;-78
2023/10/24 12:23:27;;;;;;;2.13;1.10;;;16.20;99.90;;;;;;4972384;28;20034;-77
2023/10/24 12:25:52;;;;;;;2.97;1.33;;;16.00;99.90;;;;;;4992745;28;20034;-78
2023/10/24 12:28:18;;;;;;;2.20;1.48;;;15.80;99.90;;;;;;4973473;28;20037;-78
2023/10/24 12:30:44;;;;;;;1.52;1.00;;;15.70;99.90;;;;;;4967942;28;20395;-78
2023/10/24 12:33:09;;;;;;;0.90;0.80;;;15.60;99.90;;;;;;4978065;28;20038;-78
2023/10/24 12:35:35;;;;;;;5.05;1.77;;;15.40;99.90;;;;;;4959843;28;20495;-77
2023/10/24 12:38:01;;;;;;;1.35;1.05;;;15.10;99.90;;;;;;4974857;28;20035;-77
2023/10/24 12:40:26;;;;;;;1.58;1.05;;;15.00;99.90;;;;;;4956166;28;20164;-77
2023/10/24 12:42:52;;;;;;;3.65;1.10;;;14.80;99.90;;;;;;4958580;28;20445;-77
2023/10/24 12:45:18;;;;;;;1.30;1.00;;;14.70;99.90;;;;;;4976495;28;20034;-77
2023/10/24 12:47:44;;;;;;;1.80;1.17;;;14.50;99.90;;;;;;4989651;28;20026;-78